Ashburn, Georgia
Current Conditions -  °F | °C
As of 5:15 PM on Tuesday 21 Oct 2014 (Local Time) from KCKF Reporting Station
Clear Clear  
Wind Chill: 26°   Ceiling: Unl
Heat Index: 26°   Visibility: 10mi
Dew Point:   Wind: 6mph
Humidity: 33%   Direction: 310°NW
Pressure: 29.93"   Gusts: NA
Location:  31.71°N, 83.65°W
Report Text: KCKF 212115Z AUTO 31005KT 10SM CLR 26/09 A2993 RMK AO2 T02640091
Loading
Personal Weather Stations






























Interactive Weather Map
Tropical Storm Tracking
New forecast layout! Learn more

10-Day Weather Forecast

Advertisements
Track Severe Weather on mobile